Auburn, WY

2:12 AM MDT on October 20, 2014 (GMT -0600)
LCWY Branch Office | Change Station
CLOSE
Current Station
Personal Weather Station
Location: Afton, WY
Elevation: 6270 ft
Nearby Weather Stations

Elev 6270 ft 42.72 °N, 110.93 °W | Updated 6 minutes ago

Clear
Clear
37.5 °F
Feels Like 38 °F
N
0.0
Wind Variable Wind from NNE
Gusts 1.0 mph

Today
High -- | Low -- °F
--% Chance of Precip.
Yesterday
High -- | Low -- °F
Precip. -- in
7:43 AM 6:33 PM
Waning Crescent, 12% visible
Pressure 30.15 in
Visibility 10.0 miles
Clouds Clear
Windchill 38 °F
Dew Point 29 °F
Humidity 71%
Rainfall 0.00 in
Snow Depth Not available.
UV 0 out of 12
Pollen 2.50 out of 12
Air Quality Not available.
Flu Activity Sporadic
METAR KAFO 200755Z AUTO 00000KT 10SM CLR 00/M02 A3015 RMK AO2

More Conditions Fewer Conditions

Pressure 30.15 in
Visibility 10.0 miles
Clouds Clear
Windchill 38 °F
Dew Point 29 °F
Humidity 71%
Rainfall 0.00 in
Snow Depth Not available.
UV 0 out of 12
Pollen 2.50 out of 12
Air Quality Not available.
Flu Activity Sporadic
METAR KAFO 200755Z AUTO 00000KT 10SM CLR 00/M02 A3015 RMK AO2

More Conditions Fewer Conditions

10-Day Weather Forecast

Almanac

Astronomy

Oct. 20, 2014 Rise Set
Actual Time 7:43 AM MDT 6:33 PM MDT
Civil Twilight 7:14 AM MDT 7:02 PM MDT
Nautical Twilight 6:41 AM MDT 7:34 PM MDT
Astronomical Twilight 6:08 AM MDT 8:07 PM MDT
Moon 4:30 AM MDT 5:01 PM MDT
Length of Visible Light 11h 47m
Length of Day
10h 50m
Waning Crescent, 12% of the Moon is Illuminated
Today
Waning Crescent
Oct 23
New
Oct 30
First Quarter
Nov 6
Full
Nov 14
Last Quarter

Today's Extremes

State Highs State Lows

Community

WunderPhotos

Upload Photos

1,763,316 photos uploaded!

Nearby

Snow Depth

Station Depth Elevation
Willow Creek 0 in 8450 ft
Salt River Summit 0 in 7600 ft
Triple Peak 0 in 8500 ft
Blind Bull Summit 2 in 8900 ft
Spring Creek Divide 0 in 9000 ft

Earthquake Activity

City Distance Mag. Time & Date
No recent earthquake activity has been reported nearby.
Minimum magnitude displayed is 2.5.

Coastal Water Temperatures

Place Temperature
No Stations Reporting

Nearby Weather Stations